Wendover Airport
KENV : now visible

Airfield :











YOU CAN JOIN US ON...

 
LOGIN :

Register | Disclaimer

   EN    FR    IT 

 









Legend :    VFR   Marginal VFR   IFR   Intensive IFR   Very Intensive IFR
Visi :
Ceiling :
>= 8 km
>= 3000ft
5 to 8 km
1000 to 3000 ft
1500m to 5 km
500 to 1000 ft
800 to 1500m
200 to 500 ft
< 800m
< 200 ft
Symbols :   Thunderstorms  Fog  Heavy snow  Heavy precipitations  Wind > 20 kt







- Airport Elevation : 4237 ft


KENV - Wendover

CURRENT METAR :
  • 162056Z AUTO 22020G24KT 10SM CLR 30/M07 A2974 RMK AO2 PK WND 21027/2030 SLP026 T03001072 56020

EXPIRED METARs :
  • 161956Z AUTO 21018G24KT 10SM CLR 30/M06 A2976 RMK AO2 PK WND 18027/1906 SLP030 T03001061
  • 161856Z AUTO 18015G24KT 10SM CLR 29/M02 A2979 RMK AO2 PK WND 18034/1836 SLP038 T02891022

TAF KENV
Valid from the 16 at 18:00 until the 17 at 18:00 UTC


161737Z 1618/1718 19020G30KT P6SM SCT080 SCT120
FM170100 28030G40KT P6SM SCT080 BKN120
FM170900 31015G25KT P6SM SCT080 SCT120
FM171400 32015KT P6SM SCT080 SCT120
No reported NOTAMs for that airfield.



MET'MAP, your aeronautical weather chart ! - Copyright ORBIFLY December 2007 - Disclaimer

ORBIFLY MET'MAP TEAM :

Programming & Development : Alexandra Zaïnal
Concept & Development : Baudouin d'Aumeries
Co-Development & Prog : Marc-Olivier Méhu
Technical & hardware support : Manuel Goepfert

Contact : metmap@orbifly.com




SOURCES & CREDITS :

   NOAA       Earth
Advisory